Terminal Aerodrome Forecast
Issued by NWS

Home | Current Version | Previous Version | Text Only | Print | Product List | Glossary On
Versions: 1 2 3 4 5 6 7 8 9 10 11 12 13 14 15 16 17 18 19
000
FTUS43 KMQT 211737
TAFIWD
TAF
KIWD 211737Z 2118/2218 12007KT P6SM SKC
     FM220200 16009KT P6SM SCT110
     FM220500 17011KT P6SM VCSH BKN050
     FM220600 18011KT P6SM VCSH BKN045 WS020/20040KT
     FM221200 18009KT 5SM BR BKN025 WS020/22035KT
     FM221400 20010KT P6SM SCT110=

USA.gov is the U.S. government's official web portal to all federal, state and local government web resources and services.